^^
 
Daily Summary for January 25, 2021 Units:  English    Metric   Both
Daily Weekly Monthly Yearly Custom
  Current: High: Low: Average:
Temperature: 33.7 °F 36.5 °F 32.7 °F 33.7 °F
Dew Point: 31.6 °F 34.4 °F 30.2 °F 31.3 °F
Humidity: 92% 92% 90% 91%
Wind Speed: 0mph 2.1mph 0mph 0.2mph
Wind Gust: 0mph 6mph - -
WindCalm - - South
Pressure: 29.83 in 29.85 in 29.83 in -
Precipitation: 0.13 in      
Historical Graphs
 
 
Tabular Data for January 25, 2021
Time Temperature Dew Point Pressure Wind Wind Speed Wind Gust Humidity Rainfall Rate (Hourly) solar
00:04 36.5 °F 34.4 °F 29.84 in SSE 0.3 mph 2 mph 92% 0.12 in 0 W/m2
00:09 36.5 °F 34.4 °F 29.84 in ENE 0.2 mph 0.5 mph 92% 0.12 in 0 W/m2
00:14 36.4 °F 34.2 °F 29.84 in East 1.3 mph 2 mph 91.7% 0.12 in 0 W/m2
00:19 35.9 °F 33.6 °F 29.84 in Calm   2 mph 91.1% 0.11 in 0 W/m2
00:24 35.3 °F 32.9 °F 29.84 in Calm     91% 0.11 in 0 W/m2
00:29 35 °F 32.5 °F 29.84 in Calm     90.4% 0.10 in 0 W/m2
00:34 34.7 °F 32.1 °F 29.84 in Calm     90% 0.10 in 0 W/m2
00:39 34.3 °F 31.7 °F 29.84 in Calm     90% 0.09 in 0 W/m2
00:44 34.1 °F 31.5 °F 29.84 in Calm     90% 0.09 in 0 W/m2
00:49 33.8 °F 31.2 °F 29.84 in SSW 2.1 mph 2.4 mph 90% 0.09 in 0 W/m2
00:53 33.5 °F 30.9 °F 29.84 in SW 0.8 mph 6 mph 90% 0.08 in 0 W/m2
00:59 33.2 °F 30.6 °F 29.84 in WSW 1.4 mph 3 mph 90% 0.06 in 0 W/m2
01:04 33.1 °F 30.5 °F 29.84 in Calm   2 mph 90% 0.05 in 0 W/m2
01:09 33 °F 30.4 °F 29.84 in Calm     90% 0.04 in 0 W/m2
01:14 32.9 °F 30.3 °F 29.84 in Calm     90% 0.04 in 0 W/m2
01:19 32.8 °F 30.2 °F 29.84 in Calm     90% 0.04 in 0 W/m2
01:24 32.8 °F 30.4 °F 29.84 in SSW 1 mph 1.8 mph 90.9% 0.05 in 0 W/m2
01:29 32.7 °F 30.4 °F 29.84 in Calm   3 mph 91% 0.05 in 0 W/m2
01:34 32.7 °F 30.4 °F 29.84 in Calm     91% 0.06 in 0 W/m2
01:39 32.7 °F 30.4 °F 29.84 in Calm     91% 0.06 in 0 W/m2
01:44 32.7 °F 30.4 °F 29.84 in Calm     91% 0.06 in 0 W/m2
01:49 32.7 °F 30.4 °F 29.84 in Calm     91% 0.06 in 0 W/m2
01:54 32.7 °F 30.4 °F 29.84 in Calm     91% 0.05 in 0 W/m2
01:59 32.8 °F 30.5 °F 29.84 in Calm     91% 0.06 in 0 W/m2
02:03 32.8 °F 30.5 °F 29.84 in Calm     91% 0.05 in 0 W/m2
02:09 32.8 °F 30.5 °F 29.84 in Calm     91% 0.05 in 0 W/m2
02:14 32.9 °F 30.6 °F 29.84 in SW 0.2 mph 0.4 mph 91.3% 0.05 in 0 W/m2
02:19 33 °F 30.8 °F 29.84 in SW 0.3 mph 2 mph 91.7% 0.05 in 0 W/m2
02:24 33.1 °F 31 °F 29.85 in Calm     92% 0.05 in 0 W/m2
02:29 33.2 °F 31.1 °F 29.85 in Calm     92% 0.04 in 0 W/m2
02:34 33.3 °F 31.2 °F 29.85 in Calm     92% 0.05 in 0 W/m2
02:39 33.5 °F 31.4 °F 29.85 in Calm     92% 0.04 in 0 W/m2
02:44 33.5 °F 31.4 °F 29.84 in Calm     92% 0.04 in 0 W/m2
02:49 33.6 °F 31.5 °F 29.84 in Calm     92% 0.03 in 0 W/m2
02:54 33.7 °F 31.6 °F 29.84 in Calm     92% 0.03 in 0 W/m2
02:59 33.7 °F 31.6 °F 29.83 in Calm     92% 0.03 in 0 W/m2
El Dorado Weather
Compliments of Weather Underground - 1.5 mb